sensor_id;sensor_type;location;lat;lon;timestamp;temperature;humidity
9537;DHT22;4807;48.024;11.726;2024-01-27T00:00:36;2.10;99.90
9537;DHT22;4807;48.024;11.726;2024-01-27T00:03:48;2.10;99.90
9537;DHT22;4807;48.024;11.726;2024-01-27T00:06:57;2.10;99.90
9537;DHT22;4807;48.024;11.726;2024-01-27T00:10:07;2.10;99.90
9537;DHT22;4807;48.024;11.726;2024-01-27T00:13:17;2.00;99.90
9537;DHT22;4807;48.024;11.726;2024-01-27T00:16:27;2.00;99.90
9537;DHT22;4807;48.024;11.726;2024-01-27T00:19:38;1.90;99.90
9537;DHT22;4807;48.024;11.726;2024-01-27T00:22:47;1.90;99.90
9537;DHT22;4807;48.024;11.726;2024-01-27T00:25:56;4.00;99.90
9537;DHT22;4807;48.024;11.726;2024-01-27T00:29:04;1.70;99.90
9537;DHT22;4807;48.024;11.726;2024-01-27T00:32:12;1.80;99.90
9537;DHT22;4807;48.024;11.726;2024-01-27T00:35:22;2.00;99.90
9537;DHT22;4807;48.024;11.726;2024-01-27T00:38:30;2.10;99.90
9537;DHT22;4807;48.024;11.726;2024-01-27T00:41:38;2.20;99.90
9537;DHT22;4807;48.024;11.726;2024-01-27T00:44:47;2.10;99.90
9537;DHT22;4807;48.024;11.726;2024-01-27T00:47:56;2.20;99.90
9537;DHT22;4807;48.024;11.726;2024-01-27T00:51:06;2.00;99.90
9537;DHT22;4807;48.024;11.726;2024-01-27T00:54:14;2.00;99.90
9537;DHT22;4807;48.024;11.726;2024-01-27T00:57:23;2.00;99.90
9537;DHT22;4807;48.024;11.726;2024-01-27T01:00:31;1.90;99.90
9537;DHT22;4807;48.024;11.726;2024-01-27T01:03:40;1.90;99.90
9537;DHT22;4807;48.024;11.726;2024-01-27T01:06:50;1.60;99.90
9537;DHT22;4807;48.024;11.726;2024-01-27T01:09:58;1.60;99.90
9537;DHT22;4807;48.024;11.726;2024-01-27T01:13:07;1.50;99.90
9537;DHT22;4807;48.024;11.726;2024-01-27T01:16:15;1.70;99.90
9537;DHT22;4807;48.024;11.726;2024-01-27T01:19:23;1.40;99.90
9537;DHT22;4807;48.024;11.726;2024-01-27T01:22:33;1.50;99.90
9537;DHT22;4807;48.024;11.726;2024-01-27T01:25:42;1.40;99.90
9537;DHT22;4807;48.024;11.726;2024-01-27T01:28:51;1.30;99.90
9537;DHT22;4807;48.024;11.726;2024-01-27T01:32:00;1.20;99.90
9537;DHT22;4807;48.024;11.726;2024-01-27T01:35:10;1.20;99.90
9537;DHT22;4807;48.024;11.726;2024-01-27T01:38:20;1.30;99.90
9537;DHT22;4807;48.024;11.726;2024-01-27T01:41:28;1.20;99.90
9537;DHT22;4807;48.024;11.726;2024-01-27T01:44:37;1.20;99.90
9537;DHT22;4807;48.024;11.726;2024-01-27T01:47:46;1.20;99.90
9537;DHT22;4807;48.024;11.726;2024-01-27T01:50:55;1.40;99.90
9537;DHT22;4807;48.024;11.726;2024-01-27T01:54:05;1.30;99.90
9537;DHT22;4807;48.024;11.726;2024-01-27T01:57:15;1.50;99.90
9537;DHT22;4807;48.024;11.726;2024-01-27T02:00:23;1.80;99.90
9537;DHT22;4807;48.024;11.726;2024-01-27T02:03:32;1.90;99.90
9537;DHT22;4807;48.024;11.726;2024-01-27T02:06:40;1.90;99.90
9537;DHT22;4807;48.024;11.726;2024-01-27T02:09:50;2.00;99.90
9537;DHT22;4807;48.024;11.726;2024-01-27T02:12:58;1.90;99.90
9537;DHT22;4807;48.024;11.726;2024-01-27T02:16:07;1.90;99.90
9537;DHT22;4807;48.024;11.726;2024-01-27T02:19:15;1.90;99.90
9537;DHT22;4807;48.024;11.726;2024-01-27T02:22:23;3.90;99.90
9537;DHT22;4807;48.024;11.726;2024-01-27T02:25:34;2.00;99.90
9537;DHT22;4807;48.024;11.726;2024-01-27T02:28:42;2.00;99.90
9537;DHT22;4807;48.024;11.726;2024-01-27T02:31:50;2.00;99.90
9537;DHT22;4807;48.024;11.726;2024-01-27T02:34:59;2.00;99.90
9537;DHT22;4807;48.024;11.726;2024-01-27T02:38:07;1.90;99.90
9537;DHT22;4807;48.024;11.726;2024-01-27T02:41:17;1.90;99.90
9537;DHT22;4807;48.024;11.726;2024-01-27T02:44:25;1.80;99.90
9537;DHT22;4807;48.024;11.726;2024-01-27T02:47:33;1.70;99.90
9537;DHT22;4807;48.024;11.726;2024-01-27T02:50:42;1.60;99.90
9537;DHT22;4807;48.024;11.726;2024-01-27T02:53:50;1.60;99.90
9537;DHT22;4807;48.024;11.726;2024-01-27T02:57:00;1.60;99.90
9537;DHT22;4807;48.024;11.726;2024-01-27T03:00:09;1.60;99.90
9537;DHT22;4807;48.024;11.726;2024-01-27T03:03:18;1.60;99.90
9537;DHT22;4807;48.024;11.726;2024-01-27T03:06:26;1.60;99.90
9537;DHT22;4807;48.024;11.726;2024-01-27T03:09:34;1.50;99.90
9537;DHT22;4807;48.024;11.726;2024-01-27T03:12:44;1.40;99.90
9537;DHT22;4807;48.024;11.726;2024-01-27T03:15:52;1.40;99.90
9537;DHT22;4807;48.024;11.726;2024-01-27T03:19:01;1.60;99.90
9537;DHT22;4807;48.024;11.726;2024-01-27T03:22:09;1.50;99.90
9537;DHT22;4807;48.024;11.726;2024-01-27T03:25:18;1.50;99.90
9537;DHT22;4807;48.024;11.726;2024-01-27T03:28:27;1.40;99.90
9537;DHT22;4807;48.024;11.726;2024-01-27T03:31:35;1.40;99.90
9537;DHT22;4807;48.024;11.726;2024-01-27T03:34:44;1.20;99.90
9537;DHT22;4807;48.024;11.726;2024-01-27T03:37:53;1.10;99.90
9537;DHT22;4807;48.024;11.726;2024-01-27T03:41:01;1.00;99.90
9537;DHT22;4807;48.024;11.726;2024-01-27T03:44:10;0.90;99.90
9537;DHT22;4807;48.024;11.726;2024-01-27T03:47:19;0.90;99.90
9537;DHT22;4807;48.024;11.726;2024-01-27T03:50:28;0.90;99.90
9537;DHT22;4807;48.024;11.726;2024-01-27T03:53:36;0.90;99.90
9537;DHT22;4807;48.024;11.726;2024-01-27T03:56:46;0.50;99.90
9537;DHT22;4807;48.024;11.726;2024-01-27T03:59:56;0.60;99.90
9537;DHT22;4807;48.024;11.726;2024-01-27T04:03:04;0.50;99.90
9537;DHT22;4807;48.024;11.726;2024-01-27T04:06:12;0.70;99.90
9537;DHT22;4807;48.024;11.726;2024-01-27T04:09:21;0.70;99.90
9537;DHT22;4807;48.024;11.726;2024-01-27T04:12:29;0.70;99.90
9537;DHT22;4807;48.024;11.726;2024-01-27T04:15:39;0.80;99.90
9537;DHT22;4807;48.024;11.726;2024-01-27T04:18:48;0.60;99.90
9537;DHT22;4807;48.024;11.726;2024-01-27T04:21:57;0.70;99.90
9537;DHT22;4807;48.024;11.726;2024-01-27T04:25:07;0.70;99.90
9537;DHT22;4807;48.024;11.726;2024-01-27T04:28:20;0.60;99.90
9537;DHT22;4807;48.024;11.726;2024-01-27T04:31:30;0.80;99.90
9537;DHT22;4807;48.024;11.726;2024-01-27T04:34:38;0.90;99.90
9537;DHT22;4807;48.024;11.726;2024-01-27T04:37:47;0.90;99.90
9537;DHT22;4807;48.024;11.726;2024-01-27T04:40:55;0.70;99.90
9537;DHT22;4807;48.024;11.726;2024-01-27T04:44:03;0.60;99.90
9537;DHT22;4807;48.024;11.726;2024-01-27T04:47:14;0.60;99.90
9537;DHT22;4807;48.024;11.726;2024-01-27T04:50:22;0.60;99.90
9537;DHT22;4807;48.024;11.726;2024-01-27T04:53:30;0.60;99.90
9537;DHT22;4807;48.024;11.726;2024-01-27T04:56:39;0.40;99.90
9537;DHT22;4807;48.024;11.726;2024-01-27T04:59:47;0.30;99.90
9537;DHT22;4807;48.024;11.726;2024-01-27T05:02:57;0.20;99.90
9537;DHT22;4807;48.024;11.726;2024-01-27T05:06:10;0.10;99.90
9537;DHT22;4807;48.024;11.726;2024-01-27T05:09:19;0.00;99.90
9537;DHT22;4807;48.024;11.726;2024-01-27T05:12:27;-0.10;99.90
9537;DHT22;4807;48.024;11.726;2024-01-27T05:15:36;-0.20;99.90
9537;DHT22;4807;48.024;11.726;2024-01-27T05:18:46;-0.30;99.90
9537;DHT22;4807;48.024;11.726;2024-01-27T05:21:55;-0.30;99.90
9537;DHT22;4807;48.024;11.726;2024-01-27T05:25:04;-0.10;99.90
9537;DHT22;4807;48.024;11.726;2024-01-27T05:28:14;-0.30;99.90
9537;DHT22;4807;48.024;11.726;2024-01-27T05:31:23;-0.40;99.90
9537;DHT22;4807;48.024;11.726;2024-01-27T05:34:32;-0.40;99.90
9537;DHT22;4807;48.024;11.726;2024-01-27T05:37:41;-0.40;99.90
9537;DHT22;4807;48.024;11.726;2024-01-27T05:40:49;-0.40;99.90
9537;DHT22;4807;48.024;11.726;2024-01-27T05:43:58;-0.40;99.90
9537;DHT22;4807;48.024;11.726;2024-01-27T05:47:06;-0.50;99.90
9537;DHT22;4807;48.024;11.726;2024-01-27T05:50:19;-0.40;99.90
9537;DHT22;4807;48.024;11.726;2024-01-27T05:53:28;-0.30;99.90
9537;DHT22;4807;48.024;11.726;2024-01-27T05:56:36;-0.30;99.90
9537;DHT22;4807;48.024;11.726;2024-01-27T05:59:45;-0.30;99.90
9537;DHT22;4807;48.024;11.726;2024-01-27T06:02:53;-0.20;99.90
9537;DHT22;4807;48.024;11.726;2024-01-27T06:06:04;-0.20;99.90
9537;DHT22;4807;48.024;11.726;2024-01-27T06:09:12;-0.20;99.90
9537;DHT22;4807;48.024;11.726;2024-01-27T06:12:21;-0.20;99.90
9537;DHT22;4807;48.024;11.726;2024-01-27T06:15:30;-0.20;99.90
9537;DHT22;4807;48.024;11.726;2024-01-27T06:18:39;-0.30;99.90
9537;DHT22;4807;48.024;11.726;2024-01-27T06:21:48;-0.30;99.90
9537;DHT22;4807;48.024;11.726;2024-01-27T06:24:57;-0.20;99.90
9537;DHT22;4807;48.024;11.726;2024-01-27T06:28:06;-0.30;99.90
9537;DHT22;4807;48.024;11.726;2024-01-27T06:31:16;-0.30;99.90
9537;DHT22;4807;48.024;11.726;2024-01-27T06:34:24;-0.20;99.90
9537;DHT22;4807;48.024;11.726;2024-01-27T06:37:34;-0.30;99.90
9537;DHT22;4807;48.024;11.726;2024-01-27T06:40:43;-0.40;99.90
9537;DHT22;4807;48.024;11.726;2024-01-27T06:43:51;-0.50;99.90
9537;DHT22;4807;48.024;11.726;2024-01-27T06:46:59;-0.50;99.90
9537;DHT22;4807;48.024;11.726;2024-01-27T06:50:08;-0.50;99.90
9537;DHT22;4807;48.024;11.726;2024-01-27T06:53:19;-0.50;99.90
9537;DHT22;4807;48.024;11.726;2024-01-27T06:56:27;-0.50;99.90
9537;DHT22;4807;48.024;11.726;2024-01-27T06:59:36;-0.50;99.90
9537;DHT22;4807;48.024;11.726;2024-01-27T07:02:44;-0.50;99.90
9537;DHT22;4807;48.024;11.726;2024-01-27T07:05:52;-0.60;99.90
9537;DHT22;4807;48.024;11.726;2024-01-27T07:09:02;-0.60;99.90
9537;DHT22;4807;48.024;11.726;2024-01-27T07:12:11;-0.60;99.90
9537;DHT22;4807;48.024;11.726;2024-01-27T07:15:19;-0.50;99.90
9537;DHT22;4807;48.024;11.726;2024-01-27T07:18:28;-0.50;99.90
9537;DHT22;4807;48.024;11.726;2024-01-27T07:21:37;-0.50;99.90
9537;DHT22;4807;48.024;11.726;2024-01-27T07:24:47;-0.30;99.90
9537;DHT22;4807;48.024;11.726;2024-01-27T07:27:58;-0.20;99.90
9537;DHT22;4807;48.024;11.726;2024-01-27T07:31:07;-0.20;99.90
9537;DHT22;4807;48.024;11.726;2024-01-27T07:34:17;-0.10;99.90
9537;DHT22;4807;48.024;11.726;2024-01-27T07:37:26;0.00;99.90
9537;DHT22;4807;48.024;11.726;2024-01-27T07:40:36;0.10;99.90
9537;DHT22;4807;48.024;11.726;2024-01-27T07:43:45;0.10;99.90
9537;DHT22;4807;48.024;11.726;2024-01-27T07:46:54;0.10;99.90
9537;DHT22;4807;48.024;11.726;2024-01-27T07:50:02;0.20;99.90
9537;DHT22;4807;48.024;11.726;2024-01-27T07:53:11;0.30;99.90
9537;DHT22;4807;48.024;11.726;2024-01-27T07:56:23;0.40;99.90
9537;DHT22;4807;48.024;11.726;2024-01-27T07:59:32;0.70;99.90
9537;DHT22;4807;48.024;11.726;2024-01-27T08:02:40;1.30;99.90
9537;DHT22;4807;48.024;11.726;2024-01-27T08:05:48;1.70;99.90
9537;DHT22;4807;48.024;11.726;2024-01-27T08:08:56;2.10;99.90
9537;DHT22;4807;48.024;11.726;2024-01-27T08:12:08;2.30;99.90
9537;DHT22;4807;48.024;11.726;2024-01-27T08:15:16;2.60;99.90
9537;DHT22;4807;48.024;11.726;2024-01-27T08:18:24;2.90;99.90
9537;DHT22;4807;48.024;11.726;2024-01-27T08:21:33;3.00;99.90
9537;DHT22;4807;48.024;11.726;2024-01-27T08:24:42;3.20;99.90
9537;DHT22;4807;48.024;11.726;2024-01-27T08:27:52;3.20;99.90
9537;DHT22;4807;48.024;11.726;2024-01-27T08:31:00;3.30;99.90
9537;DHT22;4807;48.024;11.726;2024-01-27T08:34:08;3.20;99.90
9537;DHT22;4807;48.024;11.726;2024-01-27T08:37:20;3.30;99.90
9537;DHT22;4807;48.024;11.726;2024-01-27T08:40:29;3.50;99.90
9537;DHT22;4807;48.024;11.726;2024-01-27T08:43:38;3.40;99.90
9537;DHT22;4807;48.024;11.726;2024-01-27T08:46:48;3.50;99.90
9537;DHT22;4807;48.024;11.726;2024-01-27T08:49:57;3.40;99.90
9537;DHT22;4807;48.024;11.726;2024-01-27T08:53:06;3.40;99.90
9537;DHT22;4807;48.024;11.726;2024-01-27T08:56:15;3.40;99.90
9537;DHT22;4807;48.024;11.726;2024-01-27T08:59:25;3.50;99.90
9537;DHT22;4807;48.024;11.726;2024-01-27T09:02:34;3.40;99.90
9537;DHT22;4807;48.024;11.726;2024-01-27T09:05:42;3.40;99.90
9537;DHT22;4807;48.024;11.726;2024-01-27T09:08:52;3.40;99.90
9537;DHT22;4807;48.024;11.726;2024-01-27T09:12:00;3.50;99.90
9537;DHT22;4807;48.024;11.726;2024-01-27T09:15:10;3.50;99.90
9537;DHT22;4807;48.024;11.726;2024-01-27T09:18:19;3.50;99.90
9537;DHT22;4807;48.024;11.726;2024-01-27T09:21:31;3.50;99.90
9537;DHT22;4807;48.024;11.726;2024-01-27T09:24:40;3.40;99.90
9537;DHT22;4807;48.024;11.726;2024-01-27T09:27:49;3.40;99.90
9537;DHT22;4807;48.024;11.726;2024-01-27T09:30:58;3.40;99.90
9537;DHT22;4807;48.024;11.726;2024-01-27T09:34:07;3.50;99.90
9537;DHT22;4807;48.024;11.726;2024-01-27T09:37:15;3.60;99.90
9537;DHT22;4807;48.024;11.726;2024-01-27T09:40:24;3.60;99.90
9537;DHT22;4807;48.024;11.726;2024-01-27T09:43:32;3.70;99.90
9537;DHT22;4807;48.024;11.726;2024-01-27T09:46:44;3.70;99.90
9537;DHT22;4807;48.024;11.726;2024-01-27T09:49:54;3.70;99.90
9537;DHT22;4807;48.024;11.726;2024-01-27T09:53:03;3.70;99.90
9537;DHT22;4807;48.024;11.726;2024-01-27T09:56:15;3.70;99.90
9537;DHT22;4807;48.024;11.726;2024-01-27T09:59:25;3.70;99.90
9537;DHT22;4807;48.024;11.726;2024-01-27T10:02:36;3.80;99.90
9537;DHT22;4807;48.024;11.726;2024-01-27T10:05:47;3.90;99.90
9537;DHT22;4807;48.024;11.726;2024-01-27T10:08:57;4.10;99.90
9537;DHT22;4807;48.024;11.726;2024-01-27T10:12:08;4.20;99.90
9537;DHT22;4807;48.024;11.726;2024-01-27T10:15:18;4.20;99.90
9537;DHT22;4807;48.024;11.726;2024-01-27T10:18:29;4.30;99.90
9537;DHT22;4807;48.024;11.726;2024-01-27T10:21:39;4.40;99.90
9537;DHT22;4807;48.024;11.726;2024-01-27T10:24:48;4.50;99.90
9537;DHT22;4807;48.024;11.726;2024-01-27T10:27:56;4.60;99.90
9537;DHT22;4807;48.024;11.726;2024-01-27T10:31:08;4.60;99.90
9537;DHT22;4807;48.024;11.726;2024-01-27T10:34:21;4.50;99.90
9537;DHT22;4807;48.024;11.726;2024-01-27T10:37:29;4.40;99.90
9537;DHT22;4807;48.024;11.726;2024-01-27T10:40:38;4.40;99.90
9537;DHT22;4807;48.024;11.726;2024-01-27T10:43:50;4.40;99.90
9537;DHT22;4807;48.024;11.726;2024-01-27T10:47:02;4.60;99.90
9537;DHT22;4807;48.024;11.726;2024-01-27T10:50:15;4.50;99.90
9537;DHT22;4807;48.024;11.726;2024-01-27T10:53:24;4.60;99.90
9537;DHT22;4807;48.024;11.726;2024-01-27T10:56:37;4.50;99.90
9537;DHT22;4807;48.024;11.726;2024-01-27T10:59:51;4.60;99.90
9537;DHT22;4807;48.024;11.726;2024-01-27T11:03:02;4.80;99.90
9537;DHT22;4807;48.024;11.726;2024-01-27T11:06:14;4.90;99.90
9537;DHT22;4807;48.024;11.726;2024-01-27T11:09:26;4.90;99.90
9537;DHT22;4807;48.024;11.726;2024-01-27T11:12:37;4.90;99.90
9537;DHT22;4807;48.024;11.726;2024-01-27T11:15:51;5.00;99.90
9537;DHT22;4807;48.024;11.726;2024-01-27T11:19:00;5.00;99.90
9537;DHT22;4807;48.024;11.726;2024-01-27T11:22:24;5.10;99.90
9537;DHT22;4807;48.024;11.726;2024-01-27T11:25:34;5.10;99.10
9537;DHT22;4807;48.024;11.726;2024-01-27T11:28:43;5.20;98.90
9537;DHT22;4807;48.024;11.726;2024-01-27T11:31:54;5.30;97.50
9537;DHT22;4807;48.024;11.726;2024-01-27T11:35:05;5.30;97.70
9537;DHT22;4807;48.024;11.726;2024-01-27T11:38:17;5.20;96.80
9537;DHT22;4807;48.024;11.726;2024-01-27T11:41:27;4.90;96.90
9537;DHT22;4807;48.024;11.726;2024-01-27T11:44:37;4.80;97.80
9537;DHT22;4807;48.024;11.726;2024-01-27T11:47:46;5.00;96.70
9537;DHT22;4807;48.024;11.726;2024-01-27T11:51:03;5.10;97.30
9537;DHT22;4807;48.024;11.726;2024-01-27T11:54:16;5.20;96.50
9537;DHT22;4807;48.024;11.726;2024-01-27T11:57:25;5.10;96.60
9537;DHT22;4807;48.024;11.726;2024-01-27T12:00:35;5.10;96.40
9537;DHT22;4807;48.024;11.726;2024-01-27T12:03:44;5.20;96.00
9537;DHT22;4807;48.024;11.726;2024-01-27T12:06:54;5.30;95.60
9537;DHT22;4807;48.024;11.726;2024-01-27T12:10:05;5.30;96.00
9537;DHT22;4807;48.024;11.726;2024-01-27T12:13:15;5.30;96.50
9537;DHT22;4807;48.024;11.726;2024-01-27T12:16:23;5.40;96.70
9537;DHT22;4807;48.024;11.726;2024-01-27T12:19:32;5.30;95.20
9537;DHT22;4807;48.024;11.726;2024-01-27T12:22:40;5.20;95.50
9537;DHT22;4807;48.024;11.726;2024-01-27T12:25:54;5.20;95.90
9537;DHT22;4807;48.024;11.726;2024-01-27T12:29:03;5.20;95.30
9537;DHT22;4807;48.024;11.726;2024-01-27T12:32:11;5.20;95.00
9537;DHT22;4807;48.024;11.726;2024-01-27T12:35:19;5.30;95.30
9537;DHT22;4807;48.024;11.726;2024-01-27T12:38:28;5.30;95.70
9537;DHT22;4807;48.024;11.726;2024-01-27T12:41:38;5.40;95.10
9537;DHT22;4807;48.024;11.726;2024-01-27T12:44:46;5.40;95.10
9537;DHT22;4807;48.024;11.726;2024-01-27T12:47:56;5.60;95.30
9537;DHT22;4807;48.024;11.726;2024-01-27T12:51:06;5.70;94.80
9537;DHT22;4807;48.024;11.726;2024-01-27T12:54:15;5.70;94.50
9537;DHT22;4807;48.024;11.726;2024-01-27T12:57:25;5.70;94.70
9537;DHT22;4807;48.024;11.726;2024-01-27T13:00:33;5.70;94.40
9537;DHT22;4807;48.024;11.726;2024-01-27T13:03:41;5.80;94.90
9537;DHT22;4807;48.024;11.726;2024-01-27T13:06:52;5.80;93.80
9537;DHT22;4807;48.024;11.726;2024-01-27T13:10:01;5.80;94.00
9537;DHT22;4807;48.024;11.726;2024-01-27T13:13:11;5.80;94.10
9537;DHT22;4807;48.024;11.726;2024-01-27T13:16:19;5.80;94.00
9537;DHT22;4807;48.024;11.726;2024-01-27T13:19:28;5.80;94.20
9537;DHT22;4807;48.024;11.726;2024-01-27T13:22:38;5.80;93.00
9537;DHT22;4807;48.024;11.726;2024-01-27T13:25:46;5.90;93.40
9537;DHT22;4807;48.024;11.726;2024-01-27T13:29:16;5.90;93.70
9537;DHT22;4807;48.024;11.726;2024-01-27T13:32:24;5.80;93.10
9537;DHT22;4807;48.024;11.726;2024-01-27T13:35:34;5.80;93.70
9537;DHT22;4807;48.024;11.726;2024-01-27T13:38:42;5.80;93.10
9537;DHT22;4807;48.024;11.726;2024-01-27T13:41:50;5.80;93.20
9537;DHT22;4807;48.024;11.726;2024-01-27T13:45:00;6.00;92.70
9537;DHT22;4807;48.024;11.726;2024-01-27T13:48:09;6.00;93.00
9537;DHT22;4807;48.024;11.726;2024-01-27T13:51:18;6.10;92.80
9537;DHT22;4807;48.024;11.726;2024-01-27T13:54:26;6.20;92.50
9537;DHT22;4807;48.024;11.726;2024-01-27T13:57:34;5.30;92.30
9537;DHT22;4807;48.024;11.726;2024-01-27T14:00:44;6.20;91.80
9537;DHT22;4807;48.024;11.726;2024-01-27T14:03:53;6.10;92.20
9537;DHT22;4807;48.024;11.726;2024-01-27T14:07:02;6.00;92.90
9537;DHT22;4807;48.024;11.726;2024-01-27T14:10:13;5.90;93.00
9537;DHT22;4807;48.024;11.726;2024-01-27T14:13:25;6.00;92.40
9537;DHT22;4807;48.024;11.726;2024-01-27T14:16:35;6.00;92.00
9537;DHT22;4807;48.024;11.726;2024-01-27T14:19:44;6.00;91.40
9537;DHT22;4807;48.024;11.726;2024-01-27T14:22:53;5.90;92.10
9537;DHT22;4807;48.024;11.726;2024-01-27T14:26:03;5.80;92.20
9537;DHT22;4807;48.024;11.726;2024-01-27T14:29:14;5.80;92.40
9537;DHT22;4807;48.024;11.726;2024-01-27T14:32:26;5.90;91.30
9537;DHT22;4807;48.024;11.726;2024-01-27T14:35:36;5.80;91.80
9537;DHT22;4807;48.024;11.726;2024-01-27T14:38:47;5.70;92.00
9537;DHT22;4807;48.024;11.726;2024-01-27T14:41:55;5.70;91.60
9537;DHT22;4807;48.024;11.726;2024-01-27T14:45:04;5.90;91.40
9537;DHT22;4807;48.024;11.726;2024-01-27T14:48:14;5.80;91.40
9537;DHT22;4807;48.024;11.726;2024-01-27T14:51:25;5.80;91.60
9537;DHT22;4807;48.024;11.726;2024-01-27T14:54:34;5.70;91.40
9537;DHT22;4807;48.024;11.726;2024-01-27T14:57:44;5.50;91.80
9537;DHT22;4807;48.024;11.726;2024-01-27T15:00:53;5.50;92.50
9537;DHT22;4807;48.024;11.726;2024-01-27T15:04:03;5.50;92.40
9537;DHT22;4807;48.024;11.726;2024-01-27T15:07:12;5.40;92.40
9537;DHT22;4807;48.024;11.726;2024-01-27T15:10:23;5.30;91.80
9537;DHT22;4807;48.024;11.726;2024-01-27T15:13:32;5.30;91.50
9537;DHT22;4807;48.024;11.726;2024-01-27T15:16:40;5.30;91.80
9537;DHT22;4807;48.024;11.726;2024-01-27T15:19:50;5.20;91.90
9537;DHT22;4807;48.024;11.726;2024-01-27T15:23:00;4.90;91.70
9537;DHT22;4807;48.024;11.726;2024-01-27T15:26:08;4.90;92.00
9537;DHT22;4807;48.024;11.726;2024-01-27T15:29:19;4.70;92.60
9537;DHT22;4807;48.024;11.726;2024-01-27T15:32:28;4.60;92.70
9537;DHT22;4807;48.024;11.726;2024-01-27T15:35:39;4.40;93.40
9537;DHT22;4807;48.024;11.726;2024-01-27T15:38:48;4.40;92.90
9537;DHT22;4807;48.024;11.726;2024-01-27T15:41:57;4.30;93.40
9537;DHT22;4807;48.024;11.726;2024-01-27T15:45:09;4.10;93.80
9537;DHT22;4807;48.024;11.726;2024-01-27T15:48:17;4.00;93.70
9537;DHT22;4807;48.024;11.726;2024-01-27T15:51:27;3.80;94.60
9537;DHT22;4807;48.024;11.726;2024-01-27T15:54:35;3.50;95.20
9537;DHT22;4807;48.024;11.726;2024-01-27T15:57:47;3.30;95.90
9537;DHT22;4807;48.024;11.726;2024-01-27T16:00:55;3.10;96.30
9537;DHT22;4807;48.024;11.726;2024-01-27T16:04:04;3.00;97.40
9537;DHT22;4807;48.024;11.726;2024-01-27T16:07:14;3.10;97.00
9537;DHT22;4807;48.024;11.726;2024-01-27T16:10:22;2.80;97.40
9537;DHT22;4807;48.024;11.726;2024-01-27T16:13:31;2.70;98.30
9537;DHT22;4807;48.024;11.726;2024-01-27T16:16:39;2.70;98.90
9537;DHT22;4807;48.024;11.726;2024-01-27T16:19:48;2.40;98.90
9537;DHT22;4807;48.024;11.726;2024-01-27T16:22:58;2.20;99.90
9537;DHT22;4807;48.024;11.726;2024-01-27T16:26:07;2.00;99.90
9537;DHT22;4807;48.024;11.726;2024-01-27T16:29:16;1.70;99.90
9537;DHT22;4807;48.024;11.726;2024-01-27T16:32:25;1.50;99.90
9537;DHT22;4807;48.024;11.726;2024-01-27T16:35:33;1.40;99.90
9537;DHT22;4807;48.024;11.726;2024-01-27T16:38:43;1.40;99.90
9537;DHT22;4807;48.024;11.726;2024-01-27T16:41:52;1.30;99.90
9537;DHT22;4807;48.024;11.726;2024-01-27T16:45:00;1.30;99.90
9537;DHT22;4807;48.024;11.726;2024-01-27T16:48:09;1.30;99.90
9537;DHT22;4807;48.024;11.726;2024-01-27T16:51:18;1.20;99.90
9537;DHT22;4807;48.024;11.726;2024-01-27T16:54:28;1.10;99.90
9537;DHT22;4807;48.024;11.726;2024-01-27T16:57:36;1.10;99.90
9537;DHT22;4807;48.024;11.726;2024-01-27T17:00:45;0.90;99.90
9537;DHT22;4807;48.024;11.726;2024-01-27T17:03:53;0.80;99.90
9537;DHT22;4807;48.024;11.726;2024-01-27T17:07:02;0.60;99.90
9537;DHT22;4807;48.024;11.726;2024-01-27T17:10:13;0.50;99.90
9537;DHT22;4807;48.024;11.726;2024-01-27T17:13:22;0.70;99.90
9537;DHT22;4807;48.024;11.726;2024-01-27T17:16:30;1.10;99.90
9537;DHT22;4807;48.024;11.726;2024-01-27T17:19:39;1.00;99.90
9537;DHT22;4807;48.024;11.726;2024-01-27T17:22:48;0.70;99.90
9537;DHT22;4807;48.024;11.726;2024-01-27T17:25:58;0.50;99.90
9537;DHT22;4807;48.024;11.726;2024-01-27T17:29:07;0.50;99.90
9537;DHT22;4807;48.024;11.726;2024-01-27T17:32:16;0.30;99.90
9537;DHT22;4807;48.024;11.726;2024-01-27T17:35:25;0.20;99.90
9537;DHT22;4807;48.024;11.726;2024-01-27T17:38:34;0.20;99.90
9537;DHT22;4807;48.024;11.726;2024-01-27T17:41:44;0.10;99.90
9537;DHT22;4807;48.024;11.726;2024-01-27T17:44:52;-0.10;99.90
9537;DHT22;4807;48.024;11.726;2024-01-27T17:48:01;0.00;99.90
9537;DHT22;4807;48.024;11.726;2024-01-27T17:51:11;0.20;99.90
9537;DHT22;4807;48.024;11.726;2024-01-27T17:54:20;0.00;99.90
9537;DHT22;4807;48.024;11.726;2024-01-27T17:57:29;-0.10;99.90
9537;DHT22;4807;48.024;11.726;2024-01-27T18:00:38;-0.30;99.90
9537;DHT22;4807;48.024;11.726;2024-01-27T18:03:47;-0.30;99.90
9537;DHT22;4807;48.024;11.726;2024-01-27T18:06:55;-0.50;99.90
9537;DHT22;4807;48.024;11.726;2024-01-27T18:10:05;-0.50;99.90
9537;DHT22;4807;48.024;11.726;2024-01-27T18:13:16;-0.50;99.90
9537;DHT22;4807;48.024;11.726;2024-01-27T18:16:24;-0.50;99.90
9537;DHT22;4807;48.024;11.726;2024-01-27T18:19:32;-0.50;99.90
9537;DHT22;4807;48.024;11.726;2024-01-27T18:22:41;-0.30;99.90
9537;DHT22;4807;48.024;11.726;2024-01-27T18:25:49;-0.40;99.90
9537;DHT22;4807;48.024;11.726;2024-01-27T18:28:59;-0.50;99.90
9537;DHT22;4807;48.024;11.726;2024-01-27T18:32:07;-0.60;99.90
9537;DHT22;4807;48.024;11.726;2024-01-27T18:35:18;-0.50;99.90
9537;DHT22;4807;48.024;11.726;2024-01-27T18:38:27;-0.60;99.90
9537;DHT22;4807;48.024;11.726;2024-01-27T18:41:35;-0.70;99.90
9537;DHT22;4807;48.024;11.726;2024-01-27T18:44:50;-0.80;99.90
9537;DHT22;4807;48.024;11.726;2024-01-27T18:47:59;-0.90;99.90
9537;DHT22;4807;48.024;11.726;2024-01-27T18:51:08;-1.00;99.90
9537;DHT22;4807;48.024;11.726;2024-01-27T18:54:21;-0.90;99.90
9537;DHT22;4807;48.024;11.726;2024-01-27T18:57:33;-0.90;99.90
9537;DHT22;4807;48.024;11.726;2024-01-27T19:00:44;-0.90;99.90
9537;DHT22;4807;48.024;11.726;2024-01-27T19:03:52;-0.90;99.90
9537;DHT22;4807;48.024;11.726;2024-01-27T19:07:00;-1.00;99.90
9537;DHT22;4807;48.024;11.726;2024-01-27T19:10:09;-1.00;99.90
9537;DHT22;4807;48.024;11.726;2024-01-27T19:13:17;-1.10;99.90
9537;DHT22;4807;48.024;11.726;2024-01-27T19:16:27;-1.20;99.90
9537;DHT22;4807;48.024;11.726;2024-01-27T19:19:36;-1.30;99.90
9537;DHT22;4807;48.024;11.726;2024-01-27T19:22:44;-1.30;99.90
9537;DHT22;4807;48.024;11.726;2024-01-27T19:25:56;-1.30;99.90
9537;DHT22;4807;48.024;11.726;2024-01-27T19:29:05;-1.30;99.90
9537;DHT22;4807;48.024;11.726;2024-01-27T19:32:15;-1.30;99.90
9537;DHT22;4807;48.024;11.726;2024-01-27T19:35:24;-1.40;99.90
9537;DHT22;4807;48.024;11.726;2024-01-27T19:38:32;-1.40;99.90
9537;DHT22;4807;48.024;11.726;2024-01-27T19:41:42;-1.40;99.90
9537;DHT22;4807;48.024;11.726;2024-01-27T19:44:52;-1.30;99.90
9537;DHT22;4807;48.024;11.726;2024-01-27T19:48:02;-1.40;99.90
9537;DHT22;4807;48.024;11.726;2024-01-27T19:51:12;-1.40;99.90
9537;DHT22;4807;48.024;11.726;2024-01-27T19:54:20;-1.40;99.90
9537;DHT22;4807;48.024;11.726;2024-01-27T19:57:29;-1.50;99.90
9537;DHT22;4807;48.024;11.726;2024-01-27T20:00:38;-1.50;99.90
9537;DHT22;4807;48.024;11.726;2024-01-27T20:03:48;-1.50;99.90
9537;DHT22;4807;48.024;11.726;2024-01-27T20:06:58;-1.60;99.90
9537;DHT22;4807;48.024;11.726;2024-01-27T20:10:08;-1.60;99.90
9537;DHT22;4807;48.024;11.726;2024-01-27T20:13:16;-1.70;99.90
9537;DHT22;4807;48.024;11.726;2024-01-27T20:16:26;-1.60;99.90
9537;DHT22;4807;48.024;11.726;2024-01-27T20:19:38;-1.60;99.90
9537;DHT22;4807;48.024;11.726;2024-01-27T20:22:48;-1.50;99.90
9537;DHT22;4807;48.024;11.726;2024-01-27T20:25:57;-1.60;99.90
9537;DHT22;4807;48.024;11.726;2024-01-27T20:29:05;-1.60;99.90